sensor_id;sensor_type;location;lat;lon;timestamp;temperature;humidity
36586;DHT22;22591;48.314;11.562;2023-04-25T00:01:59;6.80;99.90
36586;DHT22;22591;48.314;11.562;2023-04-25T00:04:25;6.80;99.90
36586;DHT22;22591;48.314;11.562;2023-04-25T00:06:53;6.80;99.90
36586;DHT22;22591;48.314;11.562;2023-04-25T00:09:18;6.80;99.90
36586;DHT22;22591;48.314;11.562;2023-04-25T00:11:44;6.80;99.90
36586;DHT22;22591;48.314;11.562;2023-04-25T00:14:09;6.90;99.90
36586;DHT22;22591;48.314;11.562;2023-04-25T00:16:35;6.90;99.90
36586;DHT22;22591;48.314;11.562;2023-04-25T00:19:01;7.00;99.90
36586;DHT22;22591;48.314;11.562;2023-04-25T00:21:27;7.00;99.90
36586;DHT22;22591;48.314;11.562;2023-04-25T00:23:54;7.00;99.90
36586;DHT22;22591;48.314;11.562;2023-04-25T00:26:20;7.00;99.90
36586;DHT22;22591;48.314;11.562;2023-04-25T00:28:46;6.90;99.90
36586;DHT22;22591;48.314;11.562;2023-04-25T00:31:12;6.90;99.90
36586;DHT22;22591;48.314;11.562;2023-04-25T00:33:38;6.90;99.90
36586;DHT22;22591;48.314;11.562;2023-04-25T00:36:03;6.90;99.90
36586;DHT22;22591;48.314;11.562;2023-04-25T00:38:29;6.90;99.90
36586;DHT22;22591;48.314;11.562;2023-04-25T00:40:54;7.00;99.90
36586;DHT22;22591;48.314;11.562;2023-04-25T00:43:21;7.00;99.90
36586;DHT22;22591;48.314;11.562;2023-04-25T00:45:47;7.00;99.90
36586;DHT22;22591;48.314;11.562;2023-04-25T00:48:17;7.10;99.90
36586;DHT22;22591;48.314;11.562;2023-04-25T00:50:52;7.00;99.90
36586;DHT22;22591;48.314;11.562;2023-04-25T00:53:20;6.90;99.90
36586;DHT22;22591;48.314;11.562;2023-04-25T00:55:46;6.80;99.90
36586;DHT22;22591;48.314;11.562;2023-04-25T00:58:11;6.70;99.90
36586;DHT22;22591;48.314;11.562;2023-04-25T01:00:37;6.70;99.90
36586;DHT22;22591;48.314;11.562;2023-04-25T01:03:03;6.60;99.90
36586;DHT22;22591;48.314;11.562;2023-04-25T01:05:29;6.60;99.90
36586;DHT22;22591;48.314;11.562;2023-04-25T01:07:55;6.50;99.90
36586;DHT22;22591;48.314;11.562;2023-04-25T01:10:21;6.50;99.90
36586;DHT22;22591;48.314;11.562;2023-04-25T01:12:47;6.50;99.90
36586;DHT22;22591;48.314;11.562;2023-04-25T01:15:12;6.50;99.90
36586;DHT22;22591;48.314;11.562;2023-04-25T01:17:38;6.50;99.90
36586;DHT22;22591;48.314;11.562;2023-04-25T01:20:06;6.60;99.90
36586;DHT22;22591;48.314;11.562;2023-04-25T01:22:33;6.60;99.90
36586;DHT22;22591;48.314;11.562;2023-04-25T01:24:59;6.60;99.90
36586;DHT22;22591;48.314;11.562;2023-04-25T01:27:25;6.60;99.90
36586;DHT22;22591;48.314;11.562;2023-04-25T01:29:52;6.60;99.90
36586;DHT22;22591;48.314;11.562;2023-04-25T01:32:19;6.60;99.90
36586;DHT22;22591;48.314;11.562;2023-04-25T01:34:45;6.60;99.90
36586;DHT22;22591;48.314;11.562;2023-04-25T01:37:11;6.50;99.90
36586;DHT22;22591;48.314;11.562;2023-04-25T01:39:37;6.50;99.90
36586;DHT22;22591;48.314;11.562;2023-04-25T01:42:02;6.40;99.90
36586;DHT22;22591;48.314;11.562;2023-04-25T01:44:28;6.30;99.90
36586;DHT22;22591;48.314;11.562;2023-04-25T01:46:54;6.20;99.90
36586;DHT22;22591;48.314;11.562;2023-04-25T01:49:19;6.10;99.90
36586;DHT22;22591;48.314;11.562;2023-04-25T01:51:45;6.00;99.90
36586;DHT22;22591;48.314;11.562;2023-04-25T01:54:11;6.00;99.90
36586;DHT22;22591;48.314;11.562;2023-04-25T01:56:38;5.90;99.90
36586;DHT22;22591;48.314;11.562;2023-04-25T01:59:04;6.00;99.90
36586;DHT22;22591;48.314;11.562;2023-04-25T02:01:30;5.90;99.90
36586;DHT22;22591;48.314;11.562;2023-04-25T02:03:56;5.90;99.90
36586;DHT22;22591;48.314;11.562;2023-04-25T02:06:22;5.80;99.90
36586;DHT22;22591;48.314;11.562;2023-04-25T02:08:47;5.80;99.90
36586;DHT22;22591;48.314;11.562;2023-04-25T02:11:13;5.70;99.90
36586;DHT22;22591;48.314;11.562;2023-04-25T02:13:39;5.70;99.90
36586;DHT22;22591;48.314;11.562;2023-04-25T02:16:04;5.70;99.90
36586;DHT22;22591;48.314;11.562;2023-04-25T02:18:30;5.70;99.90
36586;DHT22;22591;48.314;11.562;2023-04-25T02:20:58;5.70;99.90
36586;DHT22;22591;48.314;11.562;2023-04-25T02:23:23;5.80;99.90
36586;DHT22;22591;48.314;11.562;2023-04-25T02:25:49;5.90;99.90
36586;DHT22;22591;48.314;11.562;2023-04-25T02:28:15;5.80;99.90
36586;DHT22;22591;48.314;11.562;2023-04-25T02:30:41;5.90;99.90
36586;DHT22;22591;48.314;11.562;2023-04-25T02:33:06;5.90;99.90
36586;DHT22;22591;48.314;11.562;2023-04-25T02:35:32;6.00;99.90
36586;DHT22;22591;48.314;11.562;2023-04-25T02:37:57;6.10;99.90
36586;DHT22;22591;48.314;11.562;2023-04-25T02:40:23;6.20;99.90
36586;DHT22;22591;48.314;11.562;2023-04-25T02:42:48;6.20;99.90
36586;DHT22;22591;48.314;11.562;2023-04-25T02:45:14;6.40;99.90
36586;DHT22;22591;48.314;11.562;2023-04-25T02:47:40;6.40;99.90
36586;DHT22;22591;48.314;11.562;2023-04-25T02:50:06;6.50;99.90
36586;DHT22;22591;48.314;11.562;2023-04-25T02:52:31;6.50;99.90
36586;DHT22;22591;48.314;11.562;2023-04-25T02:54:57;6.60;99.90
36586;DHT22;22591;48.314;11.562;2023-04-25T02:57:23;6.60;99.90
36586;DHT22;22591;48.314;11.562;2023-04-25T02:59:48;6.60;99.90
36586;DHT22;22591;48.314;11.562;2023-04-25T03:02:14;6.70;99.90
36586;DHT22;22591;48.314;11.562;2023-04-25T03:04:39;6.70;99.90
36586;DHT22;22591;48.314;11.562;2023-04-25T03:07:05;6.70;99.90
36586;DHT22;22591;48.314;11.562;2023-04-25T03:09:30;6.70;99.90
36586;DHT22;22591;48.314;11.562;2023-04-25T03:11:56;6.80;99.90
36586;DHT22;22591;48.314;11.562;2023-04-25T03:14:22;6.80;99.90
36586;DHT22;22591;48.314;11.562;2023-04-25T03:16:47;6.70;99.90
36586;DHT22;22591;48.314;11.562;2023-04-25T03:19:13;6.80;99.90
36586;DHT22;22591;48.314;11.562;2023-04-25T03:21:41;6.90;99.90
36586;DHT22;22591;48.314;11.562;2023-04-25T03:24:06;7.00;99.90
36586;DHT22;22591;48.314;11.562;2023-04-25T03:26:32;7.00;99.90
36586;DHT22;22591;48.314;11.562;2023-04-25T03:28:58;7.00;99.90
36586;DHT22;22591;48.314;11.562;2023-04-25T03:31:23;7.10;99.90
36586;DHT22;22591;48.314;11.562;2023-04-25T03:33:49;7.10;99.90
36586;DHT22;22591;48.314;11.562;2023-04-25T03:36:14;7.10;99.90
36586;DHT22;22591;48.314;11.562;2023-04-25T03:38:40;7.00;99.90
36586;DHT22;22591;48.314;11.562;2023-04-25T03:41:07;7.00;99.90
36586;DHT22;22591;48.314;11.562;2023-04-25T03:43:32;6.90;99.90
36586;DHT22;22591;48.314;11.562;2023-04-25T03:45:58;6.90;99.90
36586;DHT22;22591;48.314;11.562;2023-04-25T03:48:25;6.90;99.90
36586;DHT22;22591;48.314;11.562;2023-04-25T03:50:52;6.90;99.90
36586;DHT22;22591;48.314;11.562;2023-04-25T03:53:17;6.80;99.90
36586;DHT22;22591;48.314;11.562;2023-04-25T03:55:43;6.90;99.90
36586;DHT22;22591;48.314;11.562;2023-04-25T03:58:09;6.90;99.90
36586;DHT22;22591;48.314;11.562;2023-04-25T04:00:35;6.90;99.90
36586;DHT22;22591;48.314;11.562;2023-04-25T04:03:00;7.00;99.90
36586;DHT22;22591;48.314;11.562;2023-04-25T04:05:26;7.00;99.90
36586;DHT22;22591;48.314;11.562;2023-04-25T04:07:52;7.00;99.90
36586;DHT22;22591;48.314;11.562;2023-04-25T04:10:18;7.00;99.90
36586;DHT22;22591;48.314;11.562;2023-04-25T04:12:44;7.00;99.90
36586;DHT22;22591;48.314;11.562;2023-04-25T04:15:10;7.00;99.90
36586;DHT22;22591;48.314;11.562;2023-04-25T04:17:35;7.00;99.90
36586;DHT22;22591;48.314;11.562;2023-04-25T04:20:01;7.00;99.90
36586;DHT22;22591;48.314;11.562;2023-04-25T04:22:28;7.00;99.90
36586;DHT22;22591;48.314;11.562;2023-04-25T04:24:54;7.00;99.90
36586;DHT22;22591;48.314;11.562;2023-04-25T04:27:21;7.00;99.90
36586;DHT22;22591;48.314;11.562;2023-04-25T04:29:47;6.90;99.90
36586;DHT22;22591;48.314;11.562;2023-04-25T04:32:14;6.90;99.90
36586;DHT22;22591;48.314;11.562;2023-04-25T04:34:39;7.00;99.90
36586;DHT22;22591;48.314;11.562;2023-04-25T04:37:06;7.00;99.90
36586;DHT22;22591;48.314;11.562;2023-04-25T04:39:33;7.00;99.90
36586;DHT22;22591;48.314;11.562;2023-04-25T04:41:58;7.00;99.90
36586;DHT22;22591;48.314;11.562;2023-04-25T04:44:24;7.20;99.90
36586;DHT22;22591;48.314;11.562;2023-04-25T04:46:51;7.20;99.90
36586;DHT22;22591;48.314;11.562;2023-04-25T04:49:17;7.20;99.90
36586;DHT22;22591;48.314;11.562;2023-04-25T04:51:42;7.30;99.90
36586;DHT22;22591;48.314;11.562;2023-04-25T04:54:09;7.40;99.90
36586;DHT22;22591;48.314;11.562;2023-04-25T04:56:35;7.40;99.90
36586;DHT22;22591;48.314;11.562;2023-04-25T04:59:00;7.50;99.90
36586;DHT22;22591;48.314;11.562;2023-04-25T05:01:28;7.40;99.90
36586;DHT22;22591;48.314;11.562;2023-04-25T05:03:57;7.50;99.90
36586;DHT22;22591;48.314;11.562;2023-04-25T05:06:26;7.60;99.90
36586;DHT22;22591;48.314;11.562;2023-04-25T05:08:51;7.70;99.90
36586;DHT22;22591;48.314;11.562;2023-04-25T05:11:18;7.70;99.90
36586;DHT22;22591;48.314;11.562;2023-04-25T05:13:44;7.60;99.90
36586;DHT22;22591;48.314;11.562;2023-04-25T05:16:11;7.60;99.90
36586;DHT22;22591;48.314;11.562;2023-04-25T05:18:37;7.60;99.90
36586;DHT22;22591;48.314;11.562;2023-04-25T05:21:03;7.60;99.90
36586;DHT22;22591;48.314;11.562;2023-04-25T05:23:28;7.50;99.90
36586;DHT22;22591;48.314;11.562;2023-04-25T05:25:56;7.60;99.90
36586;DHT22;22591;48.314;11.562;2023-04-25T05:28:21;7.60;99.90
36586;DHT22;22591;48.314;11.562;2023-04-25T05:30:47;7.70;99.90
36586;DHT22;22591;48.314;11.562;2023-04-25T05:33:12;7.70;99.90
36586;DHT22;22591;48.314;11.562;2023-04-25T05:35:38;7.80;99.90
36586;DHT22;22591;48.314;11.562;2023-04-25T05:38:04;7.80;99.90
36586;DHT22;22591;48.314;11.562;2023-04-25T05:40:29;7.80;99.90
36586;DHT22;22591;48.314;11.562;2023-04-25T05:42:55;7.80;99.90
36586;DHT22;22591;48.314;11.562;2023-04-25T05:45:20;7.80;99.90
36586;DHT22;22591;48.314;11.562;2023-04-25T05:47:46;7.80;99.90
36586;DHT22;22591;48.314;11.562;2023-04-25T05:50:11;7.70;99.90
36586;DHT22;22591;48.314;11.562;2023-04-25T05:52:37;7.70;99.90
36586;DHT22;22591;48.314;11.562;2023-04-25T05:55:02;7.60;99.90
36586;DHT22;22591;48.314;11.562;2023-04-25T05:57:28;7.60;99.90
36586;DHT22;22591;48.314;11.562;2023-04-25T05:59:54;7.60;99.90
36586;DHT22;22591;48.314;11.562;2023-04-25T06:02:20;7.60;99.90
36586;DHT22;22591;48.314;11.562;2023-04-25T06:04:48;7.60;99.90
36586;DHT22;22591;48.314;11.562;2023-04-25T06:07:14;7.40;99.90
36586;DHT22;22591;48.314;11.562;2023-04-25T06:09:40;7.30;99.90
36586;DHT22;22591;48.314;11.562;2023-04-25T06:12:06;7.30;99.90
36586;DHT22;22591;48.314;11.562;2023-04-25T06:14:35;7.30;99.90
36586;DHT22;22591;48.314;11.562;2023-04-25T06:17:01;7.30;99.90
36586;DHT22;22591;48.314;11.562;2023-04-25T06:19:32;7.30;99.90
36586;DHT22;22591;48.314;11.562;2023-04-25T06:21:58;7.30;99.90
36586;DHT22;22591;48.314;11.562;2023-04-25T06:24:23;7.40;99.90
36586;DHT22;22591;48.314;11.562;2023-04-25T06:26:49;7.40;99.90
36586;DHT22;22591;48.314;11.562;2023-04-25T06:29:14;7.60;99.90
36586;DHT22;22591;48.314;11.562;2023-04-25T06:31:40;7.60;99.90
36586;DHT22;22591;48.314;11.562;2023-04-25T06:34:06;7.70;99.90
36586;DHT22;22591;48.314;11.562;2023-04-25T06:36:31;7.80;99.90
36586;DHT22;22591;48.314;11.562;2023-04-25T06:38:57;7.90;99.90
36586;DHT22;22591;48.314;11.562;2023-04-25T06:41:22;8.10;99.90
36586;DHT22;22591;48.314;11.562;2023-04-25T06:43:48;8.40;99.90
36586;DHT22;22591;48.314;11.562;2023-04-25T06:46:13;8.70;99.90
36586;DHT22;22591;48.314;11.562;2023-04-25T06:48:39;9.00;99.90
36586;DHT22;22591;48.314;11.562;2023-04-25T06:51:04;9.20;99.90
36586;DHT22;22591;48.314;11.562;2023-04-25T06:53:30;9.10;99.90
36586;DHT22;22591;48.314;11.562;2023-04-25T06:55:56;8.90;99.90
36586;DHT22;22591;48.314;11.562;2023-04-25T06:58:21;8.70;99.90
36586;DHT22;22591;48.314;11.562;2023-04-25T07:00:47;8.50;99.90
36586;DHT22;22591;48.314;11.562;2023-04-25T07:03:13;8.50;99.90
36586;DHT22;22591;48.314;11.562;2023-04-25T07:05:38;8.50;99.90
36586;DHT22;22591;48.314;11.562;2023-04-25T07:08:04;8.60;99.90
36586;DHT22;22591;48.314;11.562;2023-04-25T07:10:29;8.70;99.90
36586;DHT22;22591;48.314;11.562;2023-04-25T07:12:55;9.00;99.90
36586;DHT22;22591;48.314;11.562;2023-04-25T07:15:20;9.30;99.90
36586;DHT22;22591;48.314;11.562;2023-04-25T07:17:46;9.70;99.90
36586;DHT22;22591;48.314;11.562;2023-04-25T07:20:12;9.90;99.90
36586;DHT22;22591;48.314;11.562;2023-04-25T07:22:37;9.80;99.90
36586;DHT22;22591;48.314;11.562;2023-04-25T07:25:03;9.80;99.90
36586;DHT22;22591;48.314;11.562;2023-04-25T07:27:30;9.70;99.90
36586;DHT22;22591;48.314;11.562;2023-04-25T07:29:55;9.70;99.90
36586;DHT22;22591;48.314;11.562;2023-04-25T07:32:21;9.50;99.90
36586;DHT22;22591;48.314;11.562;2023-04-25T07:34:46;9.30;99.90
36586;DHT22;22591;48.314;11.562;2023-04-25T07:37:12;9.20;99.90
36586;DHT22;22591;48.314;11.562;2023-04-25T07:39:39;8.90;99.90
36586;DHT22;22591;48.314;11.562;2023-04-25T07:42:05;9.10;99.90
36586;DHT22;22591;48.314;11.562;2023-04-25T07:44:36;9.10;99.90
36586;DHT22;22591;48.314;11.562;2023-04-25T07:47:09;9.30;99.90
36586;DHT22;22591;48.314;11.562;2023-04-25T07:49:35;9.50;99.90
36586;DHT22;22591;48.314;11.562;2023-04-25T07:52:02;9.50;99.90
36586;DHT22;22591;48.314;11.562;2023-04-25T07:54:28;9.60;99.90
36586;DHT22;22591;48.314;11.562;2023-04-25T07:56:54;9.60;99.90
36586;DHT22;22591;48.314;11.562;2023-04-25T07:59:20;9.80;99.90
36586;DHT22;22591;48.314;11.562;2023-04-25T08:01:45;10.00;99.90
36586;DHT22;22591;48.314;11.562;2023-04-25T08:04:11;10.00;99.90
36586;DHT22;22591;48.314;11.562;2023-04-25T08:06:36;10.00;99.90
36586;DHT22;22591;48.314;11.562;2023-04-25T08:09:02;10.20;99.90
36586;DHT22;22591;48.314;11.562;2023-04-25T08:11:28;10.70;99.90
36586;DHT22;22591;48.314;11.562;2023-04-25T08:13:54;11.30;99.90
36586;DHT22;22591;48.314;11.562;2023-04-25T08:16:20;11.60;99.90
36586;DHT22;22591;48.314;11.562;2023-04-25T08:18:45;11.80;99.90
36586;DHT22;22591;48.314;11.562;2023-04-25T08:21:11;12.00;99.90
36586;DHT22;22591;48.314;11.562;2023-04-25T08:23:37;11.90;99.90
36586;DHT22;22591;48.314;11.562;2023-04-25T08:26:03;12.00;99.90
36586;DHT22;22591;48.314;11.562;2023-04-25T08:28:30;12.20;99.90
36586;DHT22;22591;48.314;11.562;2023-04-25T08:30:55;12.40;99.90
36586;DHT22;22591;48.314;11.562;2023-04-25T08:33:21;12.70;99.90
36586;DHT22;22591;48.314;11.562;2023-04-25T08:35:46;13.30;99.90
36586;DHT22;22591;48.314;11.562;2023-04-25T08:38:12;13.20;99.80
36586;DHT22;22591;48.314;11.562;2023-04-25T08:40:39;12.90;99.30
36586;DHT22;22591;48.314;11.562;2023-04-25T08:43:06;12.90;99.50
36586;DHT22;22591;48.314;11.562;2023-04-25T08:45:39;13.10;99.10
36586;DHT22;22591;48.314;11.562;2023-04-25T08:48:09;13.50;97.70
36586;DHT22;22591;48.314;11.562;2023-04-25T08:50:39;13.20;96.60
36586;DHT22;22591;48.314;11.562;2023-04-25T08:53:09;12.90;97.20
36586;DHT22;22591;48.314;11.562;2023-04-25T08:55:39;12.50;97.20
36586;DHT22;22591;48.314;11.562;2023-04-25T08:58:07;12.20;97.50
36586;DHT22;22591;48.314;11.562;2023-04-25T09:00:32;12.00;96.70
36586;DHT22;22591;48.314;11.562;2023-04-25T09:02:58;11.80;98.20
36586;DHT22;22591;48.314;11.562;2023-04-25T09:05:24;12.00;97.80
36586;DHT22;22591;48.314;11.562;2023-04-25T09:07:50;12.30;96.50
36586;DHT22;22591;48.314;11.562;2023-04-25T09:10:16;12.20;96.50
36586;DHT22;22591;48.314;11.562;2023-04-25T09:12:42;12.00;96.60
36586;DHT22;22591;48.314;11.562;2023-04-25T09:15:09;12.00;96.30
36586;DHT22;22591;48.314;11.562;2023-04-25T09:17:35;12.30;95.80
36586;DHT22;22591;48.314;11.562;2023-04-25T09:20:09;12.50;96.30
36586;DHT22;22591;48.314;11.562;2023-04-25T09:22:36;12.50;95.80
36586;DHT22;22591;48.314;11.562;2023-04-25T09:25:09;12.30;95.20
36586;DHT22;22591;48.314;11.562;2023-04-25T09:27:35;12.00;95.70
36586;DHT22;22591;48.314;11.562;2023-04-25T09:30:01;12.00;95.20
36586;DHT22;22591;48.314;11.562;2023-04-25T09:32:27;12.00;95.40
36586;DHT22;22591;48.314;11.562;2023-04-25T09:34:55;12.00;94.60
36586;DHT22;22591;48.314;11.562;2023-04-25T09:37:25;12.00;95.30
36586;DHT22;22591;48.314;11.562;2023-04-25T09:39:54;12.40;95.80
36586;DHT22;22591;48.314;11.562;2023-04-25T09:42:24;13.40;93.50
36586;DHT22;22591;48.314;11.562;2023-04-25T09:44:52;14.30;91.60
36586;DHT22;22591;48.314;11.562;2023-04-25T09:47:19;14.70;88.50
36586;DHT22;22591;48.314;11.562;2023-04-25T09:49:47;14.70;88.10
36586;DHT22;22591;48.314;11.562;2023-04-25T09:52:17;13.90;89.30
36586;DHT22;22591;48.314;11.562;2023-04-25T09:54:44;13.00;94.30
36586;DHT22;22591;48.314;11.562;2023-04-25T09:57:21;12.20;95.90
36586;DHT22;22591;48.314;11.562;2023-04-25T09:59:49;11.90;97.30
36586;DHT22;22591;48.314;11.562;2023-04-25T10:02:17;11.90;96.80
36586;DHT22;22591;48.314;11.562;2023-04-25T10:04:47;12.20;96.10
36586;DHT22;22591;48.314;11.562;2023-04-25T10:07:14;12.60;95.60
36586;DHT22;22591;48.314;11.562;2023-04-25T10:09:40;13.00;95.20
36586;DHT22;22591;48.314;11.562;2023-04-25T10:12:08;13.50;93.30
36586;DHT22;22591;48.314;11.562;2023-04-25T10:14:34;13.80;91.80
36586;DHT22;22591;48.314;11.562;2023-04-25T10:17:00;14.30;91.20
36586;DHT22;22591;48.314;11.562;2023-04-25T10:19:27;14.70;89.40
36586;DHT22;22591;48.314;11.562;2023-04-25T10:22:02;15.00;87.40
36586;DHT22;22591;48.314;11.562;2023-04-25T10:24:29;15.30;86.20
36586;DHT22;22591;48.314;11.562;2023-04-25T10:26:56;15.70;86.50
36586;DHT22;22591;48.314;11.562;2023-04-25T10:29:23;15.80;84.90
36586;DHT22;22591;48.314;11.562;2023-04-25T10:31:49;15.70;82.50
36586;DHT22;22591;48.314;11.562;2023-04-25T10:34:16;14.90;85.60
36586;DHT22;22591;48.314;11.562;2023-04-25T10:36:42;14.10;89.10
36586;DHT22;22591;48.314;11.562;2023-04-25T10:39:08;13.30;90.70
36586;DHT22;22591;48.314;11.562;2023-04-25T10:41:47;12.60;94.10
36586;DHT22;22591;48.314;11.562;2023-04-25T10:44:15;11.70;95.60
36586;DHT22;22591;48.314;11.562;2023-04-25T10:46:41;11.00;98.30
36586;DHT22;22591;48.314;11.562;2023-04-25T10:49:08;11.00;99.90
36586;DHT22;22591;48.314;11.562;2023-04-25T10:51:34;11.10;99.90
36586;DHT22;22591;48.314;11.562;2023-04-25T10:54:04;11.40;99.90
36586;DHT22;22591;48.314;11.562;2023-04-25T10:56:41;11.70;99.90
36586;DHT22;22591;48.314;11.562;2023-04-25T10:59:09;12.20;99.50
36586;DHT22;22591;48.314;11.562;2023-04-25T11:01:43;12.50;99.80
36586;DHT22;22591;48.314;11.562;2023-04-25T11:04:26;12.20;98.10
36586;DHT22;22591;48.314;11.562;2023-04-25T11:09:18;11.20;99.20
36586;DHT22;22591;48.314;11.562;2023-04-25T11:11:53;10.70;99.90
36586;DHT22;22591;48.314;11.562;2023-04-25T11:14:20;9.80;99.90
36586;DHT22;22591;48.314;11.562;2023-04-25T11:16:45;8.90;99.90
36586;DHT22;22591;48.314;11.562;2023-04-25T11:19:11;8.00;99.90
36586;DHT22;22591;48.314;11.562;2023-04-25T11:21:37;7.60;99.90
36586;DHT22;22591;48.314;11.562;2023-04-25T11:24:02;7.40;99.90
36586;DHT22;22591;48.314;11.562;2023-04-25T11:26:28;7.30;99.90
36586;DHT22;22591;48.314;11.562;2023-04-25T11:28:59;7.30;99.90
36586;DHT22;22591;48.314;11.562;2023-04-25T11:31:29;7.30;99.90
36586;DHT22;22591;48.314;11.562;2023-04-25T11:33:57;7.40;99.90
36586;DHT22;22591;48.314;11.562;2023-04-25T11:36:23;7.50;99.90
36586;DHT22;22591;48.314;11.562;2023-04-25T11:38:50;7.60;99.90
36586;DHT22;22591;48.314;11.562;2023-04-25T11:41:17;7.80;99.90
36586;DHT22;22591;48.314;11.562;2023-04-25T11:43:43;8.20;99.90
36586;DHT22;22591;48.314;11.562;2023-04-25T11:46:09;8.70;99.90
36586;DHT22;22591;48.314;11.562;2023-04-25T11:48:39;9.10;99.90
36586;DHT22;22591;48.314;11.562;2023-04-25T11:51:05;9.50;99.90
36586;DHT22;22591;48.314;11.562;2023-04-25T11:53:30;9.60;99.90
36586;DHT22;22591;48.314;11.562;2023-04-25T11:55:56;9.80;99.90
36586;DHT22;22591;48.314;11.562;2023-04-25T11:58:22;10.00;99.90
36586;DHT22;22591;48.314;11.562;2023-04-25T12:00:48;10.20;99.90
36586;DHT22;22591;48.314;11.562;2023-04-25T12:03:13;10.60;99.90
36586;DHT22;22591;48.314;11.562;2023-04-25T12:05:39;11.00;99.90
36586;DHT22;22591;48.314;11.562;2023-04-25T12:08:15;11.30;99.90
36586;DHT22;22591;48.314;11.562;2023-04-25T12:10:43;11.30;99.90
36586;DHT22;22591;48.314;11.562;2023-04-25T12:13:22;11.40;99.90
36586;DHT22;22591;48.314;11.562;2023-04-25T12:15:48;11.80;99.90
36586;DHT22;22591;48.314;11.562;2023-04-25T12:18:14;11.80;99.90
36586;DHT22;22591;48.314;11.562;2023-04-25T12:20:41;11.80;99.90
36586;DHT22;22591;48.314;11.562;2023-04-25T12:23:07;12.10;99.90
36586;DHT22;22591;48.314;11.562;2023-04-25T12:25:40;12.30;99.90
36586;DHT22;22591;48.314;11.562;2023-04-25T12:30:59;12.50;99.90
36586;DHT22;22591;48.314;11.562;2023-04-25T12:33:31;11.90;99.90
36586;DHT22;22591;48.314;11.562;2023-04-25T12:35:58;11.40;99.90
36586;DHT22;22591;48.314;11.562;2023-04-25T12:38:28;10.70;99.90
36586;DHT22;22591;48.314;11.562;2023-04-25T12:40:58;10.10;99.90
36586;DHT22;22591;48.314;11.562;2023-04-25T12:43:24;9.50;99.90
36586;DHT22;22591;48.314;11.562;2023-04-25T12:45:50;9.10;99.90
36586;DHT22;22591;48.314;11.562;2023-04-25T12:48:17;8.90;99.90
36586;DHT22;22591;48.314;11.562;2023-04-25T12:50:43;8.80;99.90
36586;DHT22;22591;48.314;11.562;2023-04-25T12:53:09;8.70;99.90
36586;DHT22;22591;48.314;11.562;2023-04-25T12:55:35;8.60;99.90
36586;DHT22;22591;48.314;11.562;2023-04-25T12:58:00;8.70;99.90
36586;DHT22;22591;48.314;11.562;2023-04-25T13:00:26;8.50;99.90
36586;DHT22;22591;48.314;11.562;2023-04-25T13:02:52;8.50;99.90
36586;DHT22;22591;48.314;11.562;2023-04-25T13:05:17;8.50;99.90
36586;DHT22;22591;48.314;11.562;2023-04-25T13:07:43;8.50;99.90
36586;DHT22;22591;48.314;11.562;2023-04-25T13:10:08;8.50;99.90
36586;DHT22;22591;48.314;11.562;2023-04-25T13:12:34;8.60;99.90
36586;DHT22;22591;48.314;11.562;2023-04-25T13:15:00;8.60;99.90
36586;DHT22;22591;48.314;11.562;2023-04-25T13:17:26;8.70;99.90
36586;DHT22;22591;48.314;11.562;2023-04-25T13:19:51;8.90;99.90
36586;DHT22;22591;48.314;11.562;2023-04-25T13:22:17;9.10;99.90
36586;DHT22;22591;48.314;11.562;2023-04-25T13:24:44;9.20;99.90
36586;DHT22;22591;48.314;11.562;2023-04-25T13:27:10;9.40;99.90
36586;DHT22;22591;48.314;11.562;2023-04-25T13:29:35;9.30;99.90
36586;DHT22;22591;48.314;11.562;2023-04-25T13:32:03;9.30;99.90
36586;DHT22;22591;48.314;11.562;2023-04-25T13:34:29;9.40;99.90
36586;DHT22;22591;48.314;11.562;2023-04-25T13:36:55;9.60;99.90
36586;DHT22;22591;48.314;11.562;2023-04-25T13:39:20;9.70;99.90
36586;DHT22;22591;48.314;11.562;2023-04-25T13:41:46;9.80;99.90
36586;DHT22;22591;48.314;11.562;2023-04-25T13:44:11;10.00;99.90
36586;DHT22;22591;48.314;11.562;2023-04-25T13:46:37;10.10;99.90
36586;DHT22;22591;48.314;11.562;2023-04-25T13:49:04;10.00;99.90
36586;DHT22;22591;48.314;11.562;2023-04-25T13:51:29;9.90;99.90
36586;DHT22;22591;48.314;11.562;2023-04-25T13:53:56;9.80;99.90
36586;DHT22;22591;48.314;11.562;2023-04-25T13:56:21;9.90;99.90
36586;DHT22;22591;48.314;11.562;2023-04-25T13:58:48;9.90;99.90
36586;DHT22;22591;48.314;11.562;2023-04-25T14:01:14;10.10;99.90
36586;DHT22;22591;48.314;11.562;2023-04-25T14:03:40;10.30;99.90
36586;DHT22;22591;48.314;11.562;2023-04-25T14:06:06;10.40;99.90
36586;DHT22;22591;48.314;11.562;2023-04-25T14:08:33;10.10;99.90
36586;DHT22;22591;48.314;11.562;2023-04-25T14:10:59;10.10;99.90
36586;DHT22;22591;48.314;11.562;2023-04-25T14:13:25;10.10;99.90
36586;DHT22;22591;48.314;11.562;2023-04-25T14:15:50;10.10;99.90
36586;DHT22;22591;48.314;11.562;2023-04-25T14:18:17;10.10;99.90
36586;DHT22;22591;48.314;11.562;2023-04-25T14:20:42;10.00;99.90
36586;DHT22;22591;48.314;11.562;2023-04-25T14:23:08;10.00;99.90
36586;DHT22;22591;48.314;11.562;2023-04-25T14:25:34;10.10;99.90
36586;DHT22;22591;48.314;11.562;2023-04-25T14:28:00;10.20;99.90
36586;DHT22;22591;48.314;11.562;2023-04-25T14:30:26;10.30;99.90
36586;DHT22;22591;48.314;11.562;2023-04-25T14:32:51;10.60;99.90
36586;DHT22;22591;48.314;11.562;2023-04-25T14:35:18;11.00;99.90
36586;DHT22;22591;48.314;11.562;2023-04-25T14:37:43;11.10;99.90
36586;DHT22;22591;48.314;11.562;2023-04-25T14:40:09;11.20;99.90
36586;DHT22;22591;48.314;11.562;2023-04-25T14:42:36;11.00;99.90
36586;DHT22;22591;48.314;11.562;2023-04-25T14:45:03;11.00;99.90
36586;DHT22;22591;48.314;11.562;2023-04-25T14:47:29;11.00;99.90
36586;DHT22;22591;48.314;11.562;2023-04-25T14:49:55;11.20;99.90
36586;DHT22;22591;48.314;11.562;2023-04-25T14:52:21;11.50;99.90
36586;DHT22;22591;48.314;11.562;2023-04-25T14:54:46;11.50;99.90
36586;DHT22;22591;48.314;11.562;2023-04-25T14:57:12;11.60;99.90
36586;DHT22;22591;48.314;11.562;2023-04-25T14:59:38;11.70;99.90
36586;DHT22;22591;48.314;11.562;2023-04-25T15:02:04;11.60;99.90
36586;DHT22;22591;48.314;11.562;2023-04-25T15:04:29;11.60;99.90
36586;DHT22;22591;48.314;11.562;2023-04-25T15:06:55;11.70;99.90
36586;DHT22;22591;48.314;11.562;2023-04-25T15:09:21;11.50;99.90
36586;DHT22;22591;48.314;11.562;2023-04-25T15:11:48;11.30;99.90
36586;DHT22;22591;48.314;11.562;2023-04-25T15:14:13;11.10;99.90
36586;DHT22;22591;48.314;11.562;2023-04-25T15:16:39;10.80;99.90
36586;DHT22;22591;48.314;11.562;2023-04-25T15:19:05;10.30;99.90
36586;DHT22;22591;48.314;11.562;2023-04-25T15:21:31;9.90;99.90
36586;DHT22;22591;48.314;11.562;2023-04-25T15:23:57;9.50;99.90
36586;DHT22;22591;48.314;11.562;2023-04-25T15:26:22;9.20;99.90